Tampa, Florida
Current Conditions -  °F | °C
As of 9:53 AM on Saturday 22 Nov 2014 (Local Time) from KTPA Reporting Station
Light Rain Light Rain  
Wind Chill: 71°   Ceiling: 9000
Heat Index: 71°   Visibility: 9mi
Dew Point: 64°   Wind: 8mph
Humidity: 78%   Direction: 50°NE
Pressure: 30.24"   Gusts: NA
Location:  27.95°N, 82.46°W
Report Text: KTPA 221453Z 05007KT 020V090 9SM -RA FEW028 SCT050 BKN090 22/18 A3024 RMK AO2 RAB43 SLP239 P0000 60000 T02170178 51008
Loading
Personal Weather Stations






























Interactive Weather Map New forecast layout! Learn more

10-Day Weather Forecast

Advertisements
Track Severe Weather on mobile